Progress, Mississippi
Current Conditions -  °F | °C
As of 7:53 AM on Friday 24 Oct 2014 (Local Time) from KMCB Reporting Station
Clear Clear  
Wind Chill: 50°   Ceiling: Unl
Heat Index: 50°   Visibility: 10mi
Dew Point: 47°   Wind: 3mph
Humidity: 89%   Direction: 340°NNW
Pressure: 30.12"   Gusts: NA
Location:  31.1693°N, 90.3678°W
Report Text: KMCB 241253Z AUTO 34003KT 10SM CLR 10/08 A3012 RMK AO2 SLP197 T01000083
Loading
Personal Weather Stations






























Interactive Weather Map
Tropical Storm Tracking
New forecast layout! Learn more

10-Day Weather Forecast

Advertisements
Track Severe Weather on mobile